createdAt,value
2023-01-19T00:02:10.673Z,14.38
2023-01-19T00:05:16.397Z,14.48
2023-01-19T00:08:21.649Z,14.65
2023-01-19T00:11:26.937Z,14.25
2023-01-19T00:14:32.344Z,13.55
2023-01-19T00:17:41.233Z,14.35
2023-01-19T00:20:48.300Z,12.93
2023-01-19T00:23:54.197Z,13.30
2023-01-19T00:27:00.226Z,14.05
2023-01-19T00:30:05.667Z,13.10
2023-01-19T00:33:14.704Z,14.20
2023-01-19T00:36:20.048Z,12.20
2023-01-19T00:39:25.327Z,12.70
2023-01-19T00:42:48.845Z,11.73
2023-01-19T00:45:54.004Z,12.43
2023-01-19T00:49:02.146Z,11.73
2023-01-19T00:52:07.945Z,11.73
2023-01-19T00:55:14.087Z,11.48
2023-01-19T00:58:19.608Z,11.93
2023-01-19T01:01:45.262Z,13.50
2023-01-19T01:04:56.970Z,12.38
2023-01-19T01:08:02.560Z,11.98
2023-01-19T01:11:08.277Z,11.57
2023-01-19T01:14:14.484Z,12.30
2023-01-19T01:17:25.272Z,12.15
2023-01-19T01:20:34.997Z,12.05
2023-01-19T01:23:40.185Z,12.88
2023-01-19T01:26:46.298Z,12.68
2023-01-19T01:29:51.494Z,12.77
2023-01-19T01:32:56.814Z,13.02
2023-01-19T01:36:04.635Z,12.57
2023-01-19T01:39:09.600Z,12.75
2023-01-19T01:42:19.030Z,12.55
2023-01-19T01:45:31.897Z,12.57
2023-01-19T01:48:37.682Z,13.10
2023-01-19T01:51:47.223Z,11.77
2023-01-19T01:54:53.084Z,11.65
2023-01-19T01:58:00.618Z,12.88
2023-01-19T02:01:18.337Z,12.60
2023-01-19T02:04:24.230Z,13.88
2023-01-19T02:07:47.165Z,13.15
2023-01-19T02:11:05.195Z,12.57
2023-01-19T02:14:10.491Z,12.88
2023-01-19T02:17:16.006Z,12.20
2023-01-19T02:20:43.218Z,12.13
2023-01-19T02:23:52.318Z,11.57
2023-01-19T02:26:58.361Z,12.20
2023-01-19T02:30:04.194Z,11.90
2023-01-19T02:33:10.383Z,11.38
2023-01-19T02:36:17.998Z,11.77
2023-01-19T02:39:29.996Z,12.87
2023-01-19T02:42:38.190Z,11.15
2023-01-19T02:45:43.594Z,10.98
2023-01-19T02:48:48.838Z,12.00
2023-01-19T02:51:54.086Z,11.98
2023-01-19T02:55:08.202Z,12.35
2023-01-19T02:58:14.938Z,11.50
2023-01-19T03:01:24.898Z,11.73
2023-01-19T03:04:37.046Z,11.90
2023-01-19T03:07:48.330Z,11.23
2023-01-19T03:11:00.777Z,11.63
2023-01-19T03:14:09.786Z,11.55
2023-01-19T03:17:16.071Z,11.60
2023-01-19T03:20:24.542Z,10.77
2023-01-19T03:23:31.513Z,11.15
2023-01-19T03:26:41.067Z,10.77
2023-01-19T03:29:49.042Z,12.07
2023-01-19T03:32:56.320Z,11.23
2023-01-19T03:36:05.633Z,11.00
2023-01-19T03:39:11.050Z,11.57
2023-01-19T03:42:19.762Z,10.82
2023-01-19T03:48:30.112Z,11.05
2023-01-19T03:51:39.303Z,10.88
2023-01-19T03:54:44.607Z,10.15
2023-01-19T03:57:52.905Z,11.25
2023-01-19T04:00:58.293Z,11.07
2023-01-19T04:04:03.543Z,10.07
2023-01-19T04:07:08.896Z,11.13
2023-01-19T04:10:16.235Z,11.00
2023-01-19T04:13:24.337Z,10.02
2023-01-19T04:16:29.409Z,10.88
2023-01-19T04:19:34.991Z,10.48
2023-01-19T04:22:40.591Z,10.07
2023-01-19T04:25:45.914Z,10.27
2023-01-19T04:28:54.106Z,8.85
2023-01-19T04:31:59.840Z,10.20
2023-01-19T04:35:05.294Z,9.40
2023-01-19T04:38:10.401Z,10.30
2023-01-19T04:41:16.095Z,10.13
2023-01-19T04:44:23.983Z,10.63
2023-01-19T04:47:29.639Z,10.70
2023-01-19T04:50:35.227Z,10.68
2023-01-19T04:53:40.287Z,10.23
2023-01-19T04:56:45.835Z,10.80
2023-01-19T04:59:53.488Z,10.45
2023-01-19T05:02:59.254Z,12.47
2023-01-19T05:06:04.978Z,11.52
2023-01-19T05:09:13.596Z,11.05
2023-01-19T05:12:18.923Z,11.13
2023-01-19T05:15:27.023Z,11.88
2023-01-19T05:18:36.541Z,10.75
2023-01-19T05:21:42.137Z,10.45
2023-01-19T05:24:47.351Z,11.70
2023-01-19T05:27:52.807Z,12.00
2023-01-19T05:31:01.222Z,11.25
2023-01-19T05:34:06.919Z,11.32
2023-01-19T05:37:12.163Z,11.82
2023-01-19T05:40:17.592Z,10.70
2023-01-19T05:43:23.015Z,11.68
2023-01-19T05:46:31.302Z,12.52
2023-01-19T05:49:36.385Z,13.30
2023-01-19T05:52:41.774Z,12.55
2023-01-19T05:55:46.972Z,12.80
2023-01-19T05:58:52.519Z,14.73
2023-01-19T06:02:00.661Z,11.98
2023-01-19T06:05:06.167Z,11.85
2023-01-19T06:08:11.261Z,12.70
2023-01-19T06:11:16.815Z,12.82
2023-01-19T06:14:21.836Z,13.10
2023-01-19T06:17:30.062Z,11.95
2023-01-19T06:20:35.106Z,12.85
2023-01-19T06:23:40.459Z,12.23
2023-01-19T06:26:46.539Z,12.60
2023-01-19T06:29:51.727Z,12.50
2023-01-19T06:32:59.830Z,12.35
2023-01-19T06:39:10.839Z,12.52
2023-01-19T06:42:16.273Z,13.23
2023-01-19T06:45:22.016Z,13.75
2023-01-19T06:48:30.310Z,12.55
2023-01-19T06:51:36.049Z,13.02
2023-01-19T06:54:41.780Z,13.40
2023-01-19T06:57:47.393Z,13.48
2023-01-19T07:00:53.588Z,13.35
2023-01-19T07:04:01.565Z,13.98
2023-01-19T07:07:07.507Z,14.65
2023-01-19T07:10:15.876Z,14.15
2023-01-19T07:13:22.159Z,13.15
2023-01-19T07:16:27.952Z,13.55
2023-01-19T07:19:36.211Z,13.40
2023-01-19T07:22:41.643Z,13.70
2023-01-19T07:25:47.995Z,14.30
2023-01-19T07:28:53.451Z,14.52
2023-01-19T07:31:58.768Z,12.77
2023-01-19T07:35:06.773Z,13.35
2023-01-19T07:38:12.552Z,13.32
2023-01-19T07:41:18.394Z,14.23
2023-01-19T07:44:24.005Z,13.85
2023-01-19T07:47:29.882Z,13.43
2023-01-19T07:50:37.862Z,13.05
2023-01-19T07:53:43.223Z,13.63
2023-01-19T07:56:48.702Z,13.88
2023-01-19T07:59:54.376Z,13.65
2023-01-19T08:03:02.991Z,14.48
2023-01-19T08:06:16.371Z,13.48
2023-01-19T08:09:21.735Z,13.02
2023-01-19T08:12:27.224Z,13.38
2023-01-19T08:15:32.255Z,13.65
2023-01-19T08:18:37.738Z,13.75
2023-01-19T08:21:46.537Z,14.70
2023-01-19T08:24:52.032Z,14.15
2023-01-19T08:27:57.861Z,14.10
2023-01-19T08:31:18.017Z,13.90
2023-01-19T08:34:24.930Z,14.20
2023-01-19T08:37:34.282Z,14.95
2023-01-19T08:40:41.437Z,14.07
2023-01-19T08:43:47.195Z,14.77
2023-01-19T08:46:52.711Z,13.15
2023-01-19T08:49:57.829Z,13.60
2023-01-19T08:53:07.425Z,14.32
2023-01-19T08:56:14.680Z,13.98
2023-01-19T08:59:31.371Z,13.65
2023-01-19T09:02:37.183Z,14.77
2023-01-19T09:05:42.436Z,13.90
2023-01-19T09:08:48.041Z,14.95
2023-01-19T09:11:53.014Z,14.27
2023-01-19T09:15:01.082Z,13.82
2023-01-19T09:18:10.425Z,14.88
2023-01-19T09:21:16.338Z,16.38
2023-01-19T09:24:21.567Z,13.98
2023-01-19T09:27:27.271Z,14.35
2023-01-19T09:30:37.386Z,14.82
2023-01-19T09:33:43.004Z,15.80
2023-01-19T09:36:49.759Z,14.77
2023-01-19T09:39:55.212Z,14.88
2023-01-19T09:43:06.377Z,14.43
2023-01-19T09:46:19.160Z,15.80
2023-01-19T09:49:28.891Z,14.63
2023-01-19T09:52:36.120Z,16.35
2023-01-19T09:55:41.411Z,16.70
2023-01-19T09:58:46.996Z,14.77
2023-01-19T10:02:03.631Z,14.70
2023-01-19T10:05:14.713Z,15.70
2023-01-19T10:08:22.523Z,16.27
2023-01-19T10:11:42.057Z,16.48
2023-01-19T10:14:59.468Z,15.00
2023-01-19T10:18:15.592Z,16.15
2023-01-19T10:21:23.364Z,15.05
2023-01-19T10:24:30.528Z,15.63
2023-01-19T10:27:37.841Z,16.17
2023-01-19T10:30:45.603Z,16.08
2023-01-19T10:33:55.427Z,16.30
2023-01-19T10:37:02.360Z,16.58
2023-01-19T10:40:20.136Z,15.95
2023-01-19T10:43:41.786Z,15.68
2023-01-19T10:46:47.842Z,15.90
2023-01-19T10:49:55.669Z,16.33
2023-01-19T10:53:02.203Z,16.90
2023-01-19T10:56:15.879Z,16.08
2023-01-19T10:59:33.538Z,16.92
2023-01-19T11:02:38.892Z,15.80
2023-01-19T11:05:47.342Z,16.77
2023-01-19T11:11:58.818Z,15.85
2023-01-19T11:15:15.586Z,15.85
2023-01-19T11:18:26.699Z,16.77
2023-01-19T11:21:35.375Z,16.27
2023-01-19T11:27:51.918Z,16.20
2023-01-19T11:30:58.244Z,17.27
2023-01-19T11:34:04.140Z,17.15
2023-01-19T11:37:29.143Z,18.52
2023-01-19T11:40:37.727Z,17.05
2023-01-19T11:43:49.079Z,19.00
2023-01-19T11:46:57.585Z,18.65
2023-01-19T11:50:06.003Z,18.48
2023-01-19T11:56:20.861Z,17.92
2023-01-19T11:59:26.503Z,17.17
2023-01-19T12:02:33.646Z,18.02
2023-01-19T12:05:40.859Z,17.92
2023-01-19T12:08:48.172Z,18.75
2023-01-19T12:11:58.716Z,18.13
2023-01-19T12:15:05.766Z,16.65
2023-01-19T12:18:16.064Z,18.25
2023-01-19T12:21:22.196Z,19.08
2023-01-19T12:24:30.677Z,18.00
2023-01-19T12:30:44.256Z,16.70
2023-01-19T12:33:50.100Z,17.88
2023-01-19T12:36:55.830Z,18.70
2023-01-19T12:40:03.096Z,18.50
2023-01-19T12:43:08.856Z,17.02
2023-01-19T12:46:30.639Z,16.77
2023-01-19T12:49:38.257Z,17.20
2023-01-19T12:52:49.602Z,19.13
2023-01-19T12:56:01.862Z,17.17
2023-01-19T12:59:08.414Z,17.88
2023-01-19T13:02:35.245Z,18.27
2023-01-19T13:06:00.734Z,16.70
2023-01-19T13:09:31.409Z,17.45
2023-01-19T13:12:36.999Z,18.27
2023-01-19T13:15:43.674Z,18.45
2023-01-19T13:18:50.678Z,17.70
2023-01-19T13:21:56.449Z,18.55
2023-01-19T13:25:11.308Z,18.00
2023-01-19T13:28:17.603Z,17.63
2023-01-19T13:31:23.439Z,19.13
2023-01-19T13:34:29.624Z,18.65
2023-01-19T13:37:38.492Z,18.95
2023-01-19T13:40:46.619Z,19.70
2023-01-19T13:43:52.560Z,19.30
2023-01-19T13:47:00.289Z,19.13
2023-01-19T13:50:05.424Z,18.60
2023-01-19T13:53:24.469Z,20.95
2023-01-19T13:56:33.379Z,19.88
2023-01-19T13:59:38.943Z,21.88
2023-01-19T14:02:44.840Z,21.55
2023-01-19T14:05:52.945Z,21.95
2023-01-19T14:09:25.241Z,20.73
2023-01-19T14:12:33.675Z,21.00
2023-01-19T14:15:38.922Z,20.08
2023-01-19T14:18:44.526Z,19.80
2023-01-19T14:22:00.736Z,20.23
2023-01-19T14:25:20.794Z,19.90
2023-01-19T14:28:41.527Z,19.40
2023-01-19T14:31:47.860Z,19.83
2023-01-19T14:34:54.270Z,21.08
2023-01-19T14:37:59.647Z,18.73
2023-01-19T14:41:05.385Z,18.15
2023-01-19T14:44:20.442Z,18.75
2023-01-19T14:47:30.857Z,18.83
2023-01-19T14:50:37.893Z,18.42
2023-01-19T14:53:49.161Z,17.80
2023-01-19T14:56:57.360Z,16.23
2023-01-19T15:00:05.735Z,17.15
2023-01-19T15:06:17.461Z,17.33
2023-01-19T15:09:23.043Z,17.23
2023-01-19T15:12:30.026Z,18.40
2023-01-19T15:15:38.685Z,17.48
2023-01-19T15:21:48.769Z,17.83
2023-01-19T15:24:57.721Z,17.70
2023-01-19T15:28:04.435Z,18.30
2023-01-19T15:31:15.149Z,17.42
2023-01-19T15:34:20.803Z,17.35
2023-01-19T15:37:26.146Z,15.15
2023-01-19T15:40:31.663Z,15.27
2023-01-19T15:43:37.217Z,15.52
2023-01-19T15:46:45.479Z,14.95
2023-01-19T15:49:51.164Z,14.30
2023-01-19T15:52:56.653Z,14.60
2023-01-19T15:56:02.159Z,14.50
2023-01-19T15:59:07.515Z,13.82
2023-01-19T16:02:15.642Z,14.63
2023-01-19T16:05:22.837Z,15.10
2023-01-19T16:08:31.531Z,14.20
2023-01-19T16:11:38.248Z,15.77
2023-01-19T16:14:43.253Z,15.48
2023-01-19T16:17:51.599Z,15.57
2023-01-19T16:20:56.983Z,16.65
2023-01-19T16:24:02.578Z,16.27
2023-01-19T16:27:09.391Z,14.63
2023-01-19T16:30:16.733Z,14.20
2023-01-19T16:33:24.886Z,14.40
2023-01-19T16:36:31.317Z,16.02
2023-01-19T16:39:36.471Z,14.02
2023-01-19T16:42:42.247Z,13.68
2023-01-19T16:45:59.239Z,14.82
2023-01-19T16:49:08.694Z,13.63
2023-01-19T16:52:14.412Z,12.93
2023-01-19T16:55:19.582Z,13.68
2023-01-19T16:58:24.955Z,13.57
2023-01-19T17:01:31.812Z,14.77
2023-01-19T17:04:39.985Z,13.95
2023-01-19T17:07:45.403Z,14.18
2023-01-19T17:10:51.127Z,14.38
2023-01-19T17:13:57.388Z,13.88
2023-01-19T17:17:02.918Z,14.10
2023-01-19T17:20:12.281Z,14.63
2023-01-19T17:23:18.045Z,12.50
2023-01-19T17:26:25.672Z,14.18
2023-01-19T17:29:30.900Z,13.03
2023-01-19T17:32:36.633Z,13.68
2023-01-19T17:35:46.833Z,12.05
2023-01-19T17:38:52.405Z,12.82
2023-01-19T17:41:58.280Z,13.32
2023-01-19T17:45:03.468Z,14.02
2023-01-19T17:48:09.940Z,14.73
2023-01-19T17:51:17.621Z,14.48
2023-01-19T17:54:23.126Z,15.57
2023-01-19T17:57:28.341Z,15.60
2023-01-19T18:00:34.238Z,15.25
2023-01-19T18:03:39.756Z,15.80
2023-01-19T18:06:49.283Z,17.10
2023-01-19T18:09:56.943Z,18.08
2023-01-19T18:13:02.118Z,17.77
2023-01-19T18:16:08.930Z,17.10
2023-01-19T18:19:14.436Z,16.85
2023-01-19T18:22:22.654Z,17.45
2023-01-19T18:25:28.110Z,17.83
2023-01-19T18:28:33.584Z,17.60
2023-01-19T18:31:39.334Z,17.60
2023-01-19T18:34:44.552Z,17.65
2023-01-19T18:37:52.596Z,16.92
2023-01-19T18:41:04.854Z,18.23
2023-01-19T18:44:10.595Z,18.20
2023-01-19T18:47:16.387Z,18.90
2023-01-19T18:50:21.431Z,21.45
2023-01-19T18:53:29.454Z,21.73
2023-01-19T18:56:34.835Z,21.52
2023-01-19T18:59:42.809Z,20.13
2023-01-19T19:02:48.379Z,21.60
2023-01-19T19:05:53.752Z,23.58
2023-01-19T19:09:02.353Z,22.30
2023-01-19T19:12:09.851Z,22.30
2023-01-19T19:15:15.633Z,23.10
2023-01-19T19:18:21.340Z,22.33
2023-01-19T19:21:27.075Z,22.08
2023-01-19T19:24:35.896Z,23.40
2023-01-19T19:27:41.346Z,21.38
2023-01-19T19:30:48.301Z,21.85
2023-01-19T19:33:53.821Z,23.25
2023-01-19T19:37:01.134Z,24.95
2023-01-19T19:40:09.645Z,23.33
2023-01-19T19:43:15.089Z,24.58
2023-01-19T19:46:21.634Z,24.63
2023-01-19T19:49:27.450Z,23.80
2023-01-19T19:52:32.857Z,24.23
2023-01-19T19:55:40.958Z,21.95
2023-01-19T19:58:46.894Z,24.58
2023-01-19T20:01:54.086Z,23.17
2023-01-19T20:04:59.495Z,21.10
2023-01-19T20:08:04.891Z,21.33
2023-01-19T20:11:14.891Z,21.60
2023-01-19T20:14:20.449Z,21.73
2023-01-19T20:17:26.202Z,21.02
2023-01-19T20:20:31.203Z,21.33
2023-01-19T20:23:36.763Z,21.52
2023-01-19T20:26:45.598Z,20.98
2023-01-19T20:29:58.433Z,21.40
2023-01-19T20:33:03.868Z,20.45
2023-01-19T20:36:10.675Z,21.35
2023-01-19T20:39:18.096Z,21.98
2023-01-19T20:42:26.063Z,23.30
2023-01-19T20:45:31.244Z,20.38
2023-01-19T20:48:36.790Z,20.08
2023-01-19T20:51:45.336Z,22.10
2023-01-19T20:57:58.131Z,19.70
2023-01-19T21:01:03.546Z,21.30
2023-01-19T21:04:09.328Z,22.63
2023-01-19T21:07:14.848Z,23.77
2023-01-19T21:10:22.607Z,23.65
2023-01-19T21:13:30.851Z,22.65
2023-01-19T21:16:37.114Z,24.42
2023-01-19T21:19:42.579Z,25.63
2023-01-19T21:22:48.123Z,25.80
2023-01-19T21:25:53.620Z,25.80
2023-01-19T21:29:02.986Z,26.25
2023-01-19T21:32:08.614Z,27.15
2023-01-19T21:35:14.224Z,26.90
2023-01-19T21:38:20.089Z,26.67
2023-01-19T21:41:25.957Z,27.38
2023-01-19T21:44:34.157Z,26.60
2023-01-19T21:47:39.490Z,27.00
2023-01-19T21:50:45.066Z,26.75
2023-01-19T21:53:52.355Z,27.23
2023-01-19T21:56:57.565Z,27.73
2023-01-19T22:00:06.732Z,26.35
2023-01-19T22:03:13.075Z,26.27
2023-01-19T22:06:18.738Z,26.73
2023-01-19T22:09:23.880Z,28.17
2023-01-19T22:12:29.133Z,26.80
2023-01-19T22:15:37.111Z,27.92
2023-01-19T22:18:43.436Z,28.45
2023-01-19T22:21:49.043Z,26.23
2023-01-19T22:24:54.743Z,26.25
2023-01-19T22:28:00.712Z,27.95
2023-01-19T22:31:09.638Z,28.27
2023-01-19T22:34:17.508Z,28.85
2023-01-19T22:37:22.632Z,27.53
2023-01-19T22:40:28.276Z,27.13
2023-01-19T22:43:33.290Z,26.67
2023-01-19T22:46:41.403Z,29.05
2023-01-19T22:49:46.494Z,29.95
2023-01-19T22:52:52.160Z,26.92
2023-01-19T22:55:57.563Z,27.63
2023-01-19T22:59:03.412Z,26.92
2023-01-19T23:02:12.478Z,26.60
2023-01-19T23:05:18.163Z,26.63
2023-01-19T23:08:23.578Z,27.42
2023-01-19T23:11:29.638Z,28.05
2023-01-19T23:14:36.371Z,26.67
2023-01-19T23:17:47.848Z,27.83
2023-01-19T23:20:53.191Z,28.38
2023-01-19T23:23:58.445Z,27.05
2023-01-19T23:27:04.351Z,28.65
2023-01-19T23:30:10.277Z,26.88
2023-01-19T23:33:18.128Z,27.25
2023-01-19T23:36:24.303Z,27.60
2023-01-19T23:39:29.220Z,26.75
2023-01-19T23:42:34.998Z,28.83
2023-01-19T23:45:40.482Z,27.17
2023-01-19T23:48:48.232Z,26.17
2023-01-19T23:51:53.813Z,26.70
2023-01-19T23:54:59.268Z,27.83
2023-01-19T23:58:04.533Z,25.33
